createdAt,value
2022-11-05T00:01:35.872Z,99221.60
2022-11-05T00:04:25.567Z,99227.24
2022-11-05T00:07:34.275Z,99240.45
2022-11-05T00:10:20.755Z,99251.11
2022-11-05T00:13:07.931Z,99258.46
2022-11-05T00:15:54.791Z,99260.61
2022-11-05T00:18:23.182Z,99265.55
2022-11-05T00:20:51.716Z,99265.30
2022-11-05T00:23:38.601Z,99270.11
2022-11-05T00:26:09.873Z,99280.05
2022-11-05T00:28:40.989Z,99278.00
2022-11-05T00:31:13.898Z,99281.04
2022-11-05T00:33:43.732Z,99286.03
2022-11-05T00:36:12.192Z,99284.40
2022-11-05T00:38:40.517Z,99288.30
2022-11-05T00:41:08.842Z,99302.71
2022-11-05T00:43:55.825Z,99298.66
2022-11-05T00:46:24.143Z,99300.13
2022-11-05T00:49:11.194Z,99301.50
2022-11-05T00:51:39.596Z,99305.75
2022-11-05T00:54:07.921Z,99306.44
2022-11-05T00:56:36.306Z,99310.93
2022-11-05T00:59:04.825Z,99315.44
2022-11-05T01:01:33.283Z,99325.66
2022-11-05T01:04:01.663Z,99328.69
2022-11-05T01:06:30.012Z,99331.20
2022-11-05T01:08:58.422Z,99335.22
2022-11-05T01:11:37.095Z,99342.58
2022-11-05T01:14:16.070Z,99351.78
2022-11-05T01:16:45.541Z,99367.84
2022-11-05T01:19:13.982Z,99372.45
2022-11-05T01:21:42.413Z,99374.83
2022-11-05T01:24:10.960Z,99369.61
2022-11-05T01:26:39.301Z,99367.90
2022-11-05T01:29:07.749Z,99371.95
2022-11-05T01:31:36.251Z,99367.36
2022-11-05T01:34:04.762Z,99374.03
2022-11-05T01:36:33.083Z,99384.22
2022-11-05T01:39:02.001Z,99383.67
2022-11-05T01:41:30.744Z,99392.66
2022-11-05T01:44:00.016Z,99391.05
2022-11-05T01:46:45.960Z,99395.46
2022-11-05T01:49:33.622Z,99400.20
2022-11-05T01:52:04.692Z,99402.89
2022-11-05T01:54:35.051Z,99399.27
2022-11-05T01:57:08.101Z,99408.40
2022-11-05T01:59:59.861Z,99405.33
2022-11-05T02:02:31.129Z,99410.10
2022-11-05T02:05:06.428Z,99413.88
2022-11-05T02:07:34.872Z,99405.98
2022-11-05T02:10:09.131Z,99408.56
2022-11-05T02:12:41.485Z,99412.08
2022-11-05T02:15:21.791Z,99413.65
2022-11-05T02:18:29.170Z,99419.02
2022-11-05T02:21:34.537Z,99426.14
2022-11-05T02:24:48.100Z,99431.86
2022-11-05T02:27:47.507Z,99437.99
2022-11-05T02:30:49.420Z,99444.15
2022-11-05T02:33:41.771Z,99453.59
2022-11-05T02:36:55.157Z,99455.10
2022-11-05T02:39:47.188Z,99466.58
2022-11-05T02:42:42.555Z,99476.86
2022-11-05T02:45:46.344Z,99471.42
2022-11-05T02:48:29.538Z,99479.21
2022-11-05T02:51:33.152Z,99484.05
2022-11-05T02:54:25.575Z,99493.13
2022-11-05T02:56:56.888Z,99498.33
2022-11-05T02:59:25.270Z,99502.36
2022-11-05T03:01:54.544Z,99507.21
2022-11-05T03:04:25.148Z,99507.38
2022-11-05T03:07:40.168Z,99504.74
2022-11-05T03:10:10.414Z,99510.20
2022-11-05T03:12:57.251Z,99510.69
2022-11-05T03:15:52.798Z,99511.29
2022-11-05T03:18:38.850Z,99521.05
2022-11-05T03:21:15.046Z,99533.13
2022-11-05T03:24:18.763Z,99532.49
2022-11-05T03:26:52.618Z,99541.70
2022-11-05T03:29:31.766Z,99550.45
2022-11-05T03:32:04.093Z,99549.67
2022-11-05T03:34:39.870Z,99551.91
2022-11-05T03:37:10.618Z,99560.13
2022-11-05T03:39:50.791Z,99560.95
2022-11-05T03:42:25.881Z,99569.13
2022-11-05T03:44:58.919Z,99571.85
2022-11-05T03:47:37.052Z,99580.27
2022-11-05T03:50:23.638Z,99575.67
2022-11-05T03:53:13.506Z,99569.83
2022-11-05T03:55:59.409Z,99575.64
2022-11-05T03:58:29.588Z,99584.11
2022-11-05T04:01:02.307Z,99603.66
2022-11-05T04:03:36.667Z,99608.59
2022-11-05T04:06:26.578Z,99617.02
2022-11-05T04:09:13.920Z,99626.80
2022-11-05T04:12:00.626Z,99632.17
2022-11-05T04:14:28.979Z,99629.70
2022-11-05T04:17:06.596Z,99633.00
2022-11-05T04:19:56.389Z,99631.43
2022-11-05T04:22:46.073Z,99638.52
2022-11-05T04:25:16.512Z,99631.91
2022-11-05T04:27:45.664Z,99631.79
2022-11-05T04:30:19.010Z,99626.90
2022-11-05T04:33:16.035Z,99634.19
2022-11-05T04:35:47.977Z,99632.24
2022-11-05T04:38:19.770Z,99640.60
2022-11-05T04:40:48.458Z,99642.17
2022-11-05T04:43:19.779Z,99651.71
2022-11-05T04:45:48.343Z,99658.98
2022-11-05T04:48:16.661Z,99663.49
2022-11-05T04:50:45.021Z,99664.14
2022-11-05T04:53:13.697Z,99659.58
2022-11-05T04:55:42.288Z,99659.72
2022-11-05T04:58:10.633Z,99661.86
2022-11-05T05:00:39.236Z,99659.60
2022-11-05T05:03:08.903Z,99666.45
2022-11-05T05:05:37.512Z,99662.08
2022-11-05T05:08:06.153Z,99667.52
2022-11-05T05:10:35.391Z,99673.28
2022-11-05T05:13:03.761Z,99678.37
2022-11-05T05:15:32.399Z,99684.50
2022-11-05T05:18:00.875Z,99688.16
2022-11-05T05:20:48.165Z,99688.77
2022-11-05T05:23:16.680Z,99687.35
2022-11-05T05:25:45.020Z,99682.02
2022-11-05T05:28:13.349Z,99679.18
2022-11-05T05:30:41.692Z,99676.20
2022-11-05T05:33:10.339Z,99677.27
2022-11-05T05:35:39.676Z,99671.70
2022-11-05T05:38:08.277Z,99674.14
2022-11-05T05:40:36.654Z,99685.64
2022-11-05T05:43:05.004Z,99686.52
2022-11-05T05:45:36.153Z,99693.45
2022-11-05T05:48:05.383Z,99704.02
2022-11-05T05:50:33.953Z,99712.67
2022-11-05T05:53:02.480Z,99715.07
2022-11-05T05:55:30.857Z,99719.85
2022-11-05T05:57:59.209Z,99731.63
2022-11-05T06:00:27.547Z,99733.39
2022-11-05T06:02:56.637Z,99735.71
2022-11-05T06:05:25.061Z,99740.70
2022-11-05T06:07:57.805Z,99745.98
2022-11-05T06:10:26.217Z,99750.99
2022-11-05T06:12:54.672Z,99759.56
2022-11-05T06:15:23.369Z,99770.33
2022-11-05T06:17:51.747Z,99768.88
2022-11-05T06:20:20.107Z,99771.76
2022-11-05T06:22:58.108Z,99779.52
2022-11-05T06:25:26.703Z,99783.97
2022-11-05T06:27:55.095Z,99788.77
2022-11-05T06:30:24.141Z,99795.41
2022-11-05T06:32:52.564Z,99798.77
2022-11-05T06:35:20.883Z,99809.08
2022-11-05T06:37:49.283Z,99810.10
2022-11-05T06:40:17.727Z,99820.06
2022-11-05T06:42:46.085Z,99820.08
2022-11-05T06:45:14.571Z,99826.85
2022-11-05T06:47:42.842Z,99837.14
2022-11-05T06:50:11.726Z,99845.79
2022-11-05T06:52:41.207Z,99846.61
2022-11-05T06:55:10.183Z,99840.16
2022-11-05T06:57:38.957Z,99843.80
2022-11-05T07:00:09.184Z,99847.60
2022-11-05T07:02:37.682Z,99856.48
2022-11-05T07:05:11.992Z,99858.98
2022-11-05T07:07:41.834Z,99862.05
2022-11-05T07:10:14.925Z,99862.63
2022-11-05T07:12:43.897Z,99861.30
2022-11-05T07:15:13.101Z,99863.59
2022-11-05T07:17:41.402Z,99868.90
2022-11-05T07:20:10.870Z,99867.41
2022-11-05T07:22:39.240Z,99876.67
2022-11-05T07:25:08.133Z,99880.61
2022-11-05T07:27:46.685Z,99884.83
2022-11-05T07:30:16.537Z,99898.16
2022-11-05T07:32:44.849Z,99901.27
2022-11-05T07:35:13.173Z,99904.33
2022-11-05T07:37:50.800Z,99913.81
2022-11-05T07:40:19.774Z,99915.60
2022-11-05T07:42:52.137Z,99916.55
2022-11-05T07:45:21.204Z,99926.66
2022-11-05T07:47:58.808Z,99933.40
2022-11-05T07:50:33.386Z,99939.52
2022-11-05T07:53:09.826Z,99935.36
2022-11-05T07:55:40.892Z,99943.29
2022-11-05T07:58:10.873Z,99944.92
2022-11-05T08:00:39.658Z,99945.35
2022-11-05T08:03:18.291Z,99949.56
2022-11-05T08:05:48.147Z,99947.67
2022-11-05T08:08:19.671Z,99941.54
2022-11-05T08:10:48.090Z,99944.15
2022-11-05T08:13:17.044Z,99945.74
2022-11-05T08:15:45.674Z,99951.95
2022-11-05T08:18:17.243Z,99953.02
2022-11-05T08:20:46.922Z,99953.80
2022-11-05T08:23:15.584Z,99954.80
2022-11-05T08:25:44.137Z,99962.27
2022-11-05T08:28:15.014Z,99970.42
2022-11-05T08:30:43.485Z,99969.23
2022-11-05T08:33:13.626Z,99975.04
2022-11-05T08:35:42.815Z,99973.75
2022-11-05T08:38:18.579Z,99979.02
2022-11-05T08:40:56.223Z,99983.89
2022-11-05T08:43:25.065Z,99990.20
2022-11-05T08:45:55.143Z,99992.30
2022-11-05T08:48:23.757Z,100000.63
2022-11-05T08:50:52.388Z,100008.19
2022-11-05T08:53:20.824Z,100011.45
2022-11-05T08:55:51.116Z,100015.13
2022-11-05T08:58:22.416Z,100020.17
2022-11-05T09:00:50.938Z,100020.51
2022-11-05T09:03:19.795Z,100019.97
2022-11-05T09:05:48.313Z,100020.14
2022-11-05T09:08:19.339Z,100033.02
2022-11-05T09:10:50.014Z,100033.27
2022-11-05T09:13:20.113Z,100038.11
2022-11-05T09:15:50.099Z,100042.23
2022-11-05T09:18:20.185Z,100046.88
2022-11-05T09:20:48.744Z,100047.71
2022-11-05T09:23:18.137Z,100048.85
2022-11-05T09:25:46.920Z,100048.12
2022-11-05T09:28:21.564Z,100054.17
2022-11-05T09:30:52.243Z,100057.45
2022-11-05T09:33:24.630Z,100062.14
2022-11-05T09:35:53.662Z,100068.89
2022-11-05T09:38:22.128Z,100070.04
2022-11-05T09:41:31.247Z,100069.48
2022-11-05T09:44:05.655Z,100072.52
2022-11-05T09:46:47.845Z,100072.27
2022-11-05T09:49:27.755Z,100071.31
2022-11-05T09:51:58.270Z,100072.67
2022-11-05T09:54:34.192Z,100070.16
2022-11-05T09:57:05.560Z,100066.13
2022-11-05T09:59:42.581Z,100065.70
2022-11-05T10:02:33.557Z,100066.49
2022-11-05T10:05:10.301Z,100069.98
2022-11-05T10:07:50.812Z,100067.21
2022-11-05T10:10:49.120Z,100066.07
2022-11-05T10:13:29.852Z,100071.56
2022-11-05T10:16:11.429Z,100084.26
2022-11-05T10:18:44.432Z,100089.97
2022-11-05T10:21:32.281Z,100093.22
2022-11-05T10:24:21.045Z,100095.41
2022-11-05T10:26:52.869Z,100089.21
2022-11-05T10:29:34.382Z,100094.85
2022-11-05T10:32:05.827Z,100091.95
2022-11-05T10:34:38.622Z,100089.77
2022-11-05T10:37:07.015Z,100088.75
2022-11-05T10:39:35.520Z,100104.14
2022-11-05T10:42:24.227Z,100105.84
2022-11-05T10:45:19.925Z,100110.31
2022-11-05T10:48:43.714Z,100113.45
2022-11-05T10:51:12.804Z,100111.98
2022-11-05T10:53:51.123Z,100112.61
2022-11-05T10:56:32.046Z,100113.71
2022-11-05T10:59:01.861Z,100114.79
2022-11-05T11:01:31.569Z,100112.59
2022-11-05T11:04:22.695Z,100112.06
2022-11-05T11:06:55.304Z,100110.83
2022-11-05T11:09:25.284Z,100118.23
2022-11-05T11:12:13.893Z,100126.25
2022-11-05T11:14:42.556Z,100129.77
2022-11-05T11:17:32.003Z,100125.50
2022-11-05T11:20:22.062Z,100127.33
2022-11-05T11:23:16.464Z,100129.36
2022-11-05T11:26:01.754Z,100139.39
2022-11-05T11:28:43.961Z,100142.57
2022-11-05T11:31:16.855Z,100143.48
2022-11-05T11:33:51.021Z,100142.75
2022-11-05T11:36:26.647Z,100145.31
2022-11-05T11:39:01.352Z,100144.63
2022-11-05T11:41:37.609Z,100141.15
2022-11-05T11:44:19.508Z,100145.58
2022-11-05T11:46:53.492Z,100149.96
2022-11-05T11:49:54.713Z,100152.52
2022-11-05T11:52:35.478Z,100156.77
2022-11-05T11:55:18.486Z,100159.85
2022-11-05T11:58:06.406Z,100160.45
2022-11-05T12:00:44.081Z,100167.64
2022-11-05T12:03:30.510Z,100168.24
2022-11-05T12:06:13.009Z,100181.11
2022-11-05T12:09:26.632Z,100182.70
2022-11-05T12:12:14.881Z,100180.14
2022-11-05T12:14:57.994Z,100178.35
2022-11-05T12:17:44.665Z,100176.48
2022-11-05T12:21:50.907Z,100175.63
2022-11-05T12:25:12.435Z,100177.62
2022-11-05T12:28:21.267Z,100180.96
2022-11-05T12:31:00.990Z,100183.19
2022-11-05T12:33:47.792Z,100185.43
2022-11-05T12:36:41.847Z,100187.88
2022-11-05T12:39:34.383Z,100193.97
2022-11-05T12:42:21.808Z,100190.80
2022-11-05T12:45:00.554Z,100192.20
2022-11-05T12:48:27.053Z,100195.83
2022-11-05T12:51:56.498Z,100200.25
2022-11-05T12:54:44.512Z,100199.05
2022-11-05T12:57:15.933Z,100193.61
2022-11-05T13:00:25.108Z,100191.67
2022-11-05T13:03:16.370Z,100190.74
2022-11-05T13:06:16.100Z,100189.73
2022-11-05T13:09:11.376Z,100193.73
2022-11-05T13:11:56.218Z,100194.59
2022-11-05T13:14:36.354Z,100195.23
2022-11-05T13:17:13.361Z,100200.91
2022-11-05T13:19:52.826Z,100192.80
2022-11-05T13:22:44.058Z,100197.16
2022-11-05T13:25:25.628Z,100205.36
2022-11-05T13:28:25.303Z,100209.60
2022-11-05T13:31:01.222Z,100215.93
2022-11-05T13:33:36.595Z,100214.20
2022-11-05T13:36:46.749Z,100221.89
2022-11-05T13:39:25.143Z,100221.86
2022-11-05T13:42:18.061Z,100226.17
2022-11-05T13:45:22.924Z,100233.90
2022-11-05T13:48:16.610Z,100234.14
2022-11-05T13:51:22.082Z,100237.38
2022-11-05T13:54:33.211Z,100234.60
2022-11-05T13:57:27.899Z,100239.08
2022-11-05T14:00:02.964Z,100244.29
2022-11-05T14:02:42.257Z,100246.93
2022-11-05T14:05:29.029Z,100251.75
2022-11-05T14:08:01.318Z,100255.42
2022-11-05T14:10:43.385Z,100252.32
2022-11-05T14:13:26.744Z,100260.05
2022-11-05T14:16:06.536Z,100267.70
2022-11-05T14:18:45.451Z,100268.71
2022-11-05T14:21:47.407Z,100271.41
2022-11-05T14:24:21.956Z,100277.30
2022-11-05T14:27:32.654Z,100280.34
2022-11-05T14:30:01.079Z,100288.94
2022-11-05T14:32:45.856Z,100295.14
2022-11-05T14:35:17.059Z,100294.02
2022-11-05T14:37:59.465Z,100302.14
2022-11-05T14:40:42.420Z,100302.64
2022-11-05T14:43:23.483Z,100309.33
2022-11-05T14:46:07.827Z,100311.11
2022-11-05T14:48:53.073Z,100312.70
2022-11-05T14:51:36.634Z,100313.29
2022-11-05T14:54:18.382Z,100313.19
2022-11-05T14:56:56.083Z,100323.83
2022-11-05T14:59:24.981Z,100319.61
2022-11-05T15:02:16.572Z,100322.28
2022-11-05T15:04:45.733Z,100326.14
2022-11-05T15:07:35.926Z,100327.33
2022-11-05T15:10:14.288Z,100329.77
2022-11-05T15:12:50.701Z,100334.35
2022-11-05T15:15:29.840Z,100336.42
2022-11-05T15:18:17.448Z,100335.95
2022-11-05T15:20:49.459Z,100334.05
2022-11-05T15:23:24.217Z,100338.40
2022-11-05T15:26:09.959Z,100337.32
2022-11-05T15:28:38.917Z,100332.08
2022-11-05T15:31:13.016Z,100331.86
2022-11-05T15:33:44.169Z,100333.27
2022-11-05T15:36:30.283Z,100334.52
2022-11-05T15:39:28.014Z,100342.44
2022-11-05T15:41:47.981Z,100350.88
2022-11-05T15:44:33.280Z,100354.98
2022-11-05T15:47:34.338Z,100359.54
2022-11-05T15:50:14.977Z,100363.26
2022-11-05T15:52:53.944Z,100368.73
2022-11-05T15:55:25.811Z,100374.35
2022-11-05T15:58:03.435Z,100378.00
2022-11-05T16:00:35.574Z,100379.51
2022-11-05T16:03:30.642Z,100382.54
2022-11-05T16:06:01.093Z,100388.09
2022-11-05T16:08:33.614Z,100389.88
2022-11-05T16:11:02.190Z,100391.07
2022-11-05T16:13:44.533Z,100391.63
2022-11-05T16:16:16.008Z,100395.21
2022-11-05T16:18:45.500Z,100402.09
2022-11-05T16:21:19.499Z,100402.88
2022-11-05T16:23:58.739Z,100403.64
2022-11-05T16:29:40.199Z,100403.55
2022-11-05T16:32:31.721Z,100402.98
2022-11-05T16:35:05.599Z,100402.79
2022-11-05T16:37:45.219Z,100405.16
2022-11-05T16:40:24.051Z,100410.23
2022-11-05T16:42:54.128Z,100411.77
2022-11-05T16:45:25.001Z,100415.27
2022-11-05T16:47:53.375Z,100418.25
2022-11-05T16:50:26.997Z,100420.03
2022-11-05T16:52:55.490Z,100419.31
2022-11-05T16:55:24.102Z,100422.39
2022-11-05T16:57:55.268Z,100422.55
2022-11-05T17:00:25.157Z,100426.31
2022-11-05T17:02:54.556Z,100428.89
2022-11-05T17:05:29.741Z,100433.10
2022-11-05T17:07:58.371Z,100440.66
2022-11-05T17:10:27.353Z,100441.14
2022-11-05T17:12:55.782Z,100443.13
2022-11-05T17:15:36.524Z,100446.14
2022-11-05T17:18:05.811Z,100444.34
2022-11-05T17:20:41.512Z,100448.48
2022-11-05T17:23:19.341Z,100447.62
2022-11-05T17:25:54.057Z,100447.73
2022-11-05T17:28:22.672Z,100451.07
2022-11-05T17:30:53.838Z,100453.89
2022-11-05T17:33:23.388Z,100457.73
2022-11-05T17:35:52.756Z,100456.86
2022-11-05T17:38:23.412Z,100459.20
2022-11-05T17:40:52.832Z,100458.50
2022-11-05T17:43:21.608Z,100456.34
2022-11-05T17:45:52.336Z,100461.05
2022-11-05T17:48:21.271Z,100464.55
2022-11-05T17:50:51.085Z,100463.52
2022-11-05T17:53:19.802Z,100461.67
2022-11-05T17:55:48.342Z,100465.64
2022-11-05T17:58:16.877Z,100469.66
2022-11-05T18:00:47.084Z,100477.11
2022-11-05T18:03:15.968Z,100483.02
2022-11-05T18:05:44.872Z,100482.16
2022-11-05T18:08:13.295Z,100481.46
2022-11-05T18:10:42.133Z,100483.14
2022-11-05T18:13:11.369Z,100488.66
2022-11-05T18:15:41.260Z,100491.71
2022-11-05T18:18:10.060Z,100494.45
2022-11-05T18:20:38.533Z,100495.60
2022-11-05T18:23:07.017Z,100497.37
2022-11-05T18:25:35.774Z,100496.35
2022-11-05T18:28:04.244Z,100502.67
2022-11-05T18:30:32.716Z,100504.48
2022-11-05T18:33:01.127Z,100505.30
2022-11-05T18:35:29.681Z,100506.25
2022-11-05T18:37:58.130Z,100509.27
2022-11-05T18:40:27.641Z,100516.30
2022-11-05T18:42:56.044Z,100518.64
2022-11-05T18:45:29.436Z,100520.90
2022-11-05T18:48:01.367Z,100523.21
2022-11-05T18:50:30.467Z,100526.91
2022-11-05T18:52:58.821Z,100525.77
2022-11-05T18:55:27.277Z,100532.58
2022-11-05T18:57:56.114Z,100538.70
2022-11-05T19:00:27.899Z,100543.94
2022-11-05T19:02:56.584Z,100545.04
2022-11-05T19:05:29.726Z,100547.08
2022-11-05T19:07:58.737Z,100546.95
2022-11-05T19:10:27.468Z,100552.36
2022-11-05T19:12:56.298Z,100553.13
2022-11-05T19:15:24.656Z,100556.61
2022-11-05T19:17:53.120Z,100562.90
2022-11-05T19:20:21.528Z,100564.00
2022-11-05T19:22:50.091Z,100567.69
2022-11-05T19:25:18.580Z,100570.86
2022-11-05T19:27:47.017Z,100571.23
2022-11-05T19:30:15.560Z,100576.17
2022-11-05T19:32:43.858Z,100577.97
2022-11-05T19:35:13.602Z,100578.03
2022-11-05T19:37:42.384Z,100578.26
2022-11-05T19:40:11.562Z,100582.30
2022-11-05T19:42:39.929Z,100585.96
2022-11-05T19:45:38.390Z,100589.95
2022-11-05T19:47:57.655Z,100592.45
2022-11-05T19:50:26.333Z,100596.38
2022-11-05T19:52:54.755Z,100597.45
2022-11-05T19:55:23.177Z,100603.09
2022-11-05T19:57:51.624Z,100602.39
2022-11-05T20:00:20.022Z,100598.92
2022-11-05T20:02:48.483Z,100599.84
2022-11-05T20:05:18.347Z,100597.61
2022-11-05T20:07:52.313Z,100599.05
2022-11-05T20:10:22.133Z,100597.87
2022-11-05T20:12:51.337Z,100593.17
2022-11-05T20:15:20.053Z,100597.84
2022-11-05T20:17:51.612Z,100599.04
2022-11-05T20:20:20.321Z,100605.65
2022-11-05T20:22:48.668Z,100604.52
2022-11-05T20:25:17.096Z,100600.52
2022-11-05T20:27:45.541Z,100603.18
2022-11-05T20:30:14.029Z,100606.58
2022-11-05T20:32:42.486Z,100601.98
2022-11-05T20:35:10.864Z,100604.90
2022-11-05T20:37:39.221Z,100609.20
2022-11-05T20:40:08.582Z,100607.65
2022-11-05T20:42:37.063Z,100608.13
2022-11-05T20:45:07.121Z,100607.94
2022-11-05T20:47:35.682Z,100604.41
2022-11-05T20:50:05.311Z,100605.12
2022-11-05T20:52:33.802Z,100611.52
2022-11-05T20:55:02.378Z,100613.65
2022-11-05T20:57:30.875Z,100612.44
2022-11-05T20:59:59.328Z,100613.44
2022-11-05T21:02:27.888Z,100615.64
2022-11-05T21:04:56.352Z,100626.11
2022-11-05T21:07:24.832Z,100627.48
2022-11-05T21:09:53.239Z,100626.25
2022-11-05T21:12:23.139Z,100628.46
2022-11-05T21:14:52.347Z,100632.42
2022-11-05T21:17:20.736Z,100633.59
2022-11-05T21:19:49.077Z,100630.92
2022-11-05T21:22:17.614Z,100628.56
2022-11-05T21:24:45.979Z,100625.11
2022-11-05T21:27:14.407Z,100620.40
2022-11-05T21:29:42.720Z,100618.83
2022-11-05T21:32:11.687Z,100620.89
2022-11-05T21:34:40.046Z,100624.73
2022-11-05T21:37:08.451Z,100625.40
2022-11-05T21:39:37.025Z,100627.34
2022-11-05T21:42:05.472Z,100624.79
2022-11-05T21:44:33.865Z,100624.72
2022-11-05T21:47:04.547Z,100625.14
2022-11-05T21:49:34.765Z,100622.95
2022-11-05T21:52:22.576Z,100624.25
2022-11-05T21:55:09.464Z,100625.36
2022-11-05T21:57:56.572Z,100624.21
2022-11-05T22:00:25.447Z,100621.47
2022-11-05T22:02:53.897Z,100622.35
2022-11-05T22:05:22.394Z,100623.92
2022-11-05T22:07:50.774Z,100629.53
2022-11-05T22:10:19.151Z,100631.14
2022-11-05T22:12:47.658Z,100633.56
2022-11-05T22:15:16.065Z,100636.56
2022-11-05T22:17:47.199Z,100636.81
2022-11-05T22:20:16.593Z,100636.60
2022-11-05T22:22:45.693Z,100636.39
2022-11-05T22:25:14.900Z,100634.30
2022-11-05T22:27:44.115Z,100637.77
2022-11-05T22:30:14.735Z,100638.28
2022-11-05T22:32:43.101Z,100640.44
2022-11-05T22:35:11.603Z,100642.59
2022-11-05T22:37:40.131Z,100643.02
2022-11-05T22:40:09.803Z,100643.78
2022-11-05T22:42:38.371Z,100645.20
2022-11-05T22:45:07.415Z,100649.21
2022-11-05T22:47:35.867Z,100649.89
2022-11-05T22:50:05.269Z,100646.66
2022-11-05T22:52:33.824Z,100648.16
2022-11-05T22:55:04.520Z,100653.84
2022-11-05T22:57:33.102Z,100654.70
2022-11-05T23:00:01.491Z,100656.40
2022-11-05T23:02:30.156Z,100653.54
2022-11-05T23:04:58.720Z,100659.09
2022-11-05T23:07:45.511Z,100660.66
2022-11-05T23:10:32.004Z,100663.30
2022-11-05T23:13:00.470Z,100661.39
2022-11-05T23:15:47.531Z,100659.45
2022-11-05T23:18:34.469Z,100656.66
2022-11-05T23:21:23.198Z,100659.19
2022-11-05T23:24:07.076Z,100660.45
2022-11-05T23:26:50.443Z,100658.88
2022-11-05T23:29:25.549Z,100653.46
2022-11-05T23:32:12.829Z,100654.56
2022-11-05T23:34:41.187Z,100653.50
2022-11-05T23:37:28.213Z,100656.79
2022-11-05T23:39:56.573Z,100662.30
2022-11-05T23:42:43.546Z,100663.65
2022-11-05T23:45:51.766Z,100660.01
2022-11-05T23:48:34.809Z,100658.91
2022-11-05T23:51:06.023Z,100659.03
2022-11-05T23:53:37.840Z,100661.40
2022-11-05T23:56:11.948Z,100662.10
2022-11-05T23:58:41.867Z,100664.50
